Veidnes — LLSD — position and weather

sailwx.info

Track history (hours):
 
Tides and Currents Weather Stations Pressure Air Temp Water Temp Dewpoint Dewpoint Depression Visibility Wind Speed Wind Dir Waves Ship Positions

Veidnes

Last reported at 2017-Jun-25 18:30 UTC. Time now 2017-Jun-25 18:57 UTC.
Position N 68°33' E 015°10'.

Length 51 m; draft 5 m.

Type: Cargo ship. MMSI: 259237000.

Date/timePositionNaut miles runAvg speedWind from/ knotsBaromVisibWave heightAir tempDewpointWater temp
2017-Jun-25 18:30N 68°33' E 015°10'4 8.4
2017-Jun-25 18:00N 68°28' E 015°12'4 8.4
2017-Jun-25 17:30N 68°25' E 015°07'3 5.3
2017-Jun-25 17:00N 68°22' E 015°04'4 8.9
2017-Jun-25 16:30N 68°19' E 014°58'5 9.0
2017-Jun-25 16:00N 68°14' E 014°57'5 9.2
2017-Jun-25 15:30N 68°10' E 014°53'5 9.2
2017-Jun-25 15:00N 68°05' E 014°51'5 9.0
2017-Jun-25 14:30N 68°01' E 014°49'9 9.3
2017-Jun-25 13:30N 67°52' E 014°42'5 9.2
2017-Jun-25 13:00N 67°48' E 014°34'4 8.5
2017-Jun-25 12:30N 67°44' E 014°31'4 7.8
2017-Jun-25 12:00N 67°42' E 014°39'4 7.3
2017-Jun-25 11:30N 67°39' E 014°46'5 9.6
2017-Jun-25 11:00N 67°40' E 014°58'5 9.6
2017-Jun-25 10:29N 67°42' E 015°09'5 9.3
2017-Jun-25 10:00N 67°45' E 015°19'3 6.0
2017-Jun-25 09:30N 67°44' E 015°27'0 0.0
2017-Jun-25 09:00N 67°44' E 015°27'0 0.0
2017-Jun-25 08:30N 67°44' E 015°27'2 4.1
2017-Jun-25 07:59N 67°44' E 015°22'5 9.8
2017-Jun-25 07:30N 67°42' E 015°11'510.5
2017-Jun-25 07:00N 67°40' E 014°59'510.0
2017-Jun-25 06:30N 67°39' E 014°45'4 8.8
2017-Jun-25 06:00N 67°42' E 014°36'4 8.9
2017-Jun-25 05:30N 67°46' E 014°31'510.3
2017-Jun-25 05:00N 67°50' E 014°39'510.2
2017-Jun-25 04:29N 67°55' E 014°45'510.6
2017-Jun-25 03:59N 68°00' E 014°48'510.7
2017-Jun-25 03:30N 68°05' E 014°51'610.8
2017-Jun-25 03:00N 68°11' E 014°54'510.9
2017-Jun-25 02:30N 68°16' E 014°58'510.2
2017-Jun-25 02:00N 68°21' E 015°02'5 9.2
2017-Jun-25 01:30N 68°25' E 015°08'4 7.5
2017-Jun-25 01:00N 68°28' E 015°12'4 7.2
2017-Jun-25 00:30N 68°32' E 015°10'5 9.9
2017-Jun-24 23:59N 68°36' E 015°16'510.2
2017-Jun-24 23:30N 68°40' E 015°24'5 9.5
2017-Jun-24 23:00N 68°45' E 015°25'510.1
2017-Jun-24 22:30N 68°50' E 015°25'5 9.5
2017-Jun-24 22:00N 68°54' E 015°19'1 1.1
2017-Jun-24 21:30N 68°54' E 015°17'1 2.1
2017-Jun-24 21:00N 68°54' E 015°20'4 8.2
2017-Jun-24 20:30N 68°51' E 015°25'4 9.1
2017-Jun-24 20:00N 68°46' E 015°26'4 8.8
2017-Jun-24 19:31N 68°42' E 015°26'4 8.6
2017-Jun-24 19:00N 68°38' E 015°20'4 9.2
2017-Jun-24 18:31N 68°35' E 015°12'5 9.0
2017-Jun-24 18:00N 68°30' E 015°11'4 7.8
2017-Jun-24 17:30N 68°26' E 015°09'4 7.7
2017-Jun-24 17:00N 68°23' E 015°04'5 9.2
2017-Jun-24 16:30N 68°19' E 014°58'5 9.3
2017-Jun-24 16:00N 68°14' E 014°56'5 9.4
2017-Jun-24 15:31N 68°10' E 014°54'5 9.3
2017-Jun-24 15:00N 68°05' E 014°51'9 9.6
2017-Jun-24 14:00N 67°56' E 014°45'5 9.7
2017-Jun-24 13:30N 67°51' E 014°41'5 9.6
2017-Jun-24 13:00N 67°48' E 014°32'5 9.5
2017-Jun-24 12:29N 67°43' E 014°32'5 9.5
2017-Jun-24 12:00N 67°41' E 014°43'4 7.9
2017-Jun-24 11:30N 67°39' E 014°52'5 9.4
2017-Jun-24 11:00N 67°41' E 015°04'5 9.4
2017-Jun-24 10:30N 67°44' E 015°14'4 8.2
2017-Jun-24 10:00N 67°44' E 015°25'1 1.9
2017-Jun-24 09:31N 67°44' E 015°27'0 0.0
2017-Jun-24 09:00N 67°44' E 015°27'0 0.1
2017-Jun-24 08:31N 67°44' E 015°27'4 7.1
2017-Jun-24 08:00N 67°45' E 015°18'510.7
2017-Jun-24 07:30N 67°41' E 015°06'510.7
2017-Jun-24 07:00N 67°39' E 014°54'4 8.9
2017-Jun-24 06:30N 67°40' E 014°42'4 8.6
2017-Jun-24 06:00N 67°44' E 014°46'0 0.1
2017-Jun-24 05:30N 67°44' E 014°46'0 0.0
2017-Jun-24 05:00N 67°44' E 014°46'0 0.0
2017-Jun-24 04:30N 67°44' E 014°46'0 0.0
2017-Jun-24 04:00N 67°44' E 014°46'0 0.0
2017-Jun-24 03:30N 67°44' E 014°46'0 0.0
2017-Jun-24 03:00N 67°44' E 014°46'0 0.0
2017-Jun-24 02:30N 67°44' E 014°46'0 0.0
2017-Jun-24 02:00N 67°44' E 014°46'0 0.0
2017-Jun-24 01:30N 67°44' E 014°46'0 0.0
2017-Jun-24 01:00N 67°44' E 014°46'0 0.0
2017-Jun-24 00:30N 67°44' E 014°46'0 0.0
2017-Jun-24 00:00N 67°44' E 014°46'0 0.0
2017-Jun-23 23:30N 67°44' E 014°46'0 0.0
2017-Jun-23 23:00N 67°44' E 014°46'0 0.0
2017-Jun-23 22:30N 67°44' E 014°46'0 0.0
2017-Jun-23 22:00N 67°44' E 014°46'0 0.0
2017-Jun-23 21:30N 67°44' E 014°46'0 0.0
2017-Jun-23 21:00N 67°44' E 014°46'0 0.0
2017-Jun-23 20:30N 67°44' E 014°46'0 0.0
2017-Jun-23 20:00N 67°44' E 014°46'0 0.0
2017-Jun-23 19:30N 67°44' E 014°46'0 0.0
2017-Jun-23 19:00N 67°44' E 014°46'0 0.0
2017-Jun-23 18:30N 67°44' E 014°46'0 1.0
2017-Jun-23 18:00N 67°44' E 014°46'510.0
2017-Jun-23 17:30N 67°46' E 014°34'5 9.9
2017-Jun-23 17:00N 67°51' E 014°31'511.0
2017-Jun-23 16:30N 67°56' E 014°36'510.2
2017-Jun-23 16:00N 68°01' E 014°41'5 9.4
2017-Jun-23 15:31N 68°05' E 014°45'5 9.6
2017-Jun-23 15:00N 68°10' E 014°51'9 9.3
2017-Jun-23 14:00N 68°19' E 014°58'4 8.8
2017-Jun-23 13:30N 68°22' E 015°04'4 8.4
2017-Jun-23 13:00N 68°26' E 015°09'4 7.5
2017-Jun-23 12:30N 68°30' E 015°11'4 8.9
2017-Jun-23 12:00N 68°34' E 015°11'5 9.5
2017-Jun-23 11:30N 68°38' E 015°19'4 8.9
2017-Jun-23 11:00N 68°42' E 015°26'0 0.3
2017-Jun-23 10:29N 68°42' E 015°25'0 0.0
2017-Jun-23 09:59N 68°42' E 015°25'0 0.0
2017-Jun-23 09:29N 68°42' E 015°25'0 0.0
2017-Jun-23 08:59N 68°42' E 015°25'0 0.0
2017-Jun-23 08:29N 68°42' E 015°25'0 0.0
2017-Jun-23 07:59N 68°42' E 015°25'0 0.0
2017-Jun-23 07:29N 68°42' E 015°25'0 0.0
2017-Jun-23 06:59N 68°42' E 015°25'0 0.0
2017-Jun-23 06:29N 68°42' E 015°25'0 0.0
2017-Jun-23 05:59N 68°42' E 015°25'0 0.0
2017-Jun-23 05:29N 68°42' E 015°25'0 0.0
2017-Jun-23 04:59N 68°42' E 015°25'0 0.0
2017-Jun-23 04:29N 68°42' E 015°25'0 1.0
2017-Jun-23 04:00N 68°42' E 015°26'510.8
2017-Jun-23 03:30N 68°48' E 015°26'511.0
2017-Jun-23 03:00N 68°53' E 015°31'611.1
2017-Jun-23 02:29N 68°58' E 015°38'510.6
2017-Jun-23 02:00N 68°59' E 015°51'510.6
2017-Jun-23 01:30N 69°03' E 016°02'510.3
2017-Jun-23 00:59N 69°07' E 016°11'510.6
2017-Jun-23 00:30N 69°12' E 016°19'510.9
2017-Jun-23 00:00N 69°16' E 016°28'610.9
2017-Jun-22 23:29N 69°21' E 016°36'511.0
2017-Jun-22 23:00N 69°25' E 016°44'610.9
2017-Jun-22 22:30N 69°30' E 016°53'611.3
2017-Jun-22 22:00N 69°33' E 017°07'511.1
2017-Jun-22 21:30N 69°36' E 017°20'510.7
2017-Jun-22 21:00N 69°39' E 017°33'510.3
2017-Jun-22 20:30N 69°38' E 017°48'510.6
2017-Jun-22 20:00N 69°34' E 017°59'511.1
2017-Jun-22 19:30N 69°31' E 018°12'510.7
2017-Jun-22 19:00N 69°32' E 018°27'510.5
2017-Jun-22 18:30N 69°33' E 018°41'4 8.7
2017-Jun-22 18:00N 69°36' E 018°52'510.2
2017-Jun-22 17:30N 69°40' E 018°60'510.4
2017-Jun-22 17:00N 69°45' E 019°06'510.8
2017-Jun-22 16:30N 69°47' E 019°19'611.2
2017-Jun-22 16:00N 69°50' E 019°34'510.9
2017-Jun-22 15:30N 69°52' E 019°48'510.9
2017-Jun-22 15:00N 69°55' E 020°01'611.0
2017-Jun-22 14:30N 69°59' E 020°14'1110.9
2017-Jun-22 13:30N 70°02' E 020°44'510.7
2017-Jun-22 13:00N 70°05' E 020°56'510.7
2017-Jun-22 12:30N 70°10' E 021°04'510.6
2017-Jun-22 12:00N 70°15' E 021°12'510.8
2017-Jun-22 11:30N 70°18' E 021°25'510.7
2017-Jun-22 11:00N 70°22' E 021°35'4 8.8
2017-Jun-22 10:30N 70°24' E 021°47'510.6
2017-Jun-22 10:00N 70°21' E 022°01'510.7
2017-Jun-22 09:30N 70°19' E 022°15'510.8
2017-Jun-22 09:00N 70°16' E 022°29'510.3
2017-Jun-22 08:30N 70°14' E 022°44'510.2
2017-Jun-22 08:00N 70°14' E 022°59'510.6
2017-Jun-22 07:29N 70°16' E 023°13'510.9
2017-Jun-22 07:00N 70°20' E 023°25'3 6.7
2017-Jun-22 06:29N 70°23' E 023°29'0 0.0
2017-Jun-22 05:59N 70°23' E 023°29'0 0.0
2017-Jun-22 05:29N 70°23' E 023°29'0 0.4
2017-Jun-22 04:59N 70°23' E 023°29'0 0.0
2017-Jun-22 04:29N 70°23' E 023°29'0 0.0
2017-Jun-22 03:59N 70°23' E 023°29'0 0.0
2017-Jun-22 03:29N 70°23' E 023°29'0 0.0
2017-Jun-22 02:59N 70°23' E 023°29'0 0.0
2017-Jun-22 02:26N 70°23' E 023°29'0 0.0
2017-Jun-22 01:59N 70°23' E 023°29'0 0.0
2017-Jun-22 01:30N 70°23' E 023°29'2 4.1
2017-Jun-22 01:00N 70°21' E 023°28'4 9.0
2017-Jun-22 00:30N 70°18' E 023°20'5 9.0
2017-Jun-22 00:00N 70°15' E 023°09'4 9.0
2017-Jun-21 23:30N 70°14' E 022°56'5 9.7
2017-Jun-21 23:00N 70°15' E 022°42'5 9.6
2017-Jun-21 22:30N 70°16' E 022°29'5 9.5
2017-Jun-21 22:00N 70°18' E 022°16'5 9.6
2017-Jun-21 21:30N 70°21' E 022°04'5 9.8
2017-Jun-21 21:00N 70°23' E 021°51'5 9.2
2017-Jun-21 20:30N 70°25' E 021°38'4 8.9
2017-Jun-21 20:00N 70°24' E 021°25'5 8.9
2017-Jun-21 19:30N 70°22' E 021°13'4 8.8
2017-Jun-21 19:00N 70°20' E 021°02'4 8.7
2017-Jun-21 18:30N 70°18' E 020°50'4 8.7
2017-Jun-21 18:00N 70°16' E 020°40'4 8.5
2017-Jun-21 17:30N 70°13' E 020°29'4 8.7
2017-Jun-21 17:00N 70°10' E 020°20'5 9.0
2017-Jun-21 16:30N 70°07' E 020°12'4 8.9
2017-Jun-21 16:00N 70°04' E 020°02'4 8.7
2017-Jun-21 15:30N 70°02' E 019°50'5 9.3
2017-Jun-21 15:00N 70°04' E 019°37'9 9.2
2017-Jun-21 14:00N 70°06' E 019°11'4 8.6
2017-Jun-21 13:30N 70°04' E 018°60'4 7.4
2017-Jun-21 12:58N 70°02' E 018°50'3 7.7
2017-Jun-21 12:30N 69°59' E 018°43'4 8.9
2017-Jun-21 12:00N 69°57' E 018°32'5 9.1
2017-Jun-21 11:29N 69°55' E 018°19'5 9.5
2017-Jun-21 11:00N 69°52' E 018°11'4 8.6
2017-Jun-21 10:30N 69°49' E 018°02'5 8.9
2017-Jun-21 09:59N 69°46' E 017°51'4 9.2
2017-Jun-21 09:30N 69°43' E 017°41'5 9.2
2017-Jun-21 09:00N 69°40' E 017°31'103 8.4
2017-Jun-20 20:46N 68°08' E 015°21'42 9.1
2017-Jun-20 16:10N 67°30' E 014°32'210.0
2017-Jun-20 16:01N 67°29' E 014°32'510.1
2017-Jun-20 15:31N 67°24' E 014°31'510.0
2017-Jun-20 15:01N 67°20' E 014°22'5 4.8
2017-Jun-20 14:01N 67°15' E 014°23'510.1
2017-Jun-20 13:31N 67°16' E 014°36'4 5.6
2017-Jun-20 12:49N 67°19' E 014°44'0 0.0
2017-Jun-20 12:26N 67°19' E 014°44'0 0.0
2017-Jun-20 10:43N 67°19' E 014°44'0 0.0
2017-Jun-20 09:01N 67°19' E 014°44'0 0.0
2017-Jun-20 09:00N 67°19' E 014°44'0 0.0
2017-Jun-20 08:30N 67°19' E 014°44'0 0.0
2017-Jun-20 08:00N 67°19' E 014°44'0 0.0
2017-Jun-20 07:30N 67°19' E 014°44'0 0.0
2017-Jun-20 07:00N 67°19' E 014°44'0 0.0
2017-Jun-20 06:30N 67°19' E 014°44'0 0.0
2017-Jun-20 05:59N 67°19' E 014°44'3 5.7
2017-Jun-20 05:31N 67°17' E 014°39'4 8.4
2017-Jun-20 05:01N 67°16' E 014°29'4 8.3
2017-Jun-20 04:30N 67°15' E 014°18'3 6.2
2017-Jun-20 04:00N 67°17' E 014°23'0 0.7
2017-Jun-20 03:31N 67°18' E 014°24'0 0.0
2017-Jun-20 03:01N 67°18' E 014°24'0 0.0
2017-Jun-20 02:31N 67°18' E 014°24'0 0.0
2017-Jun-20 02:01N 67°18' E 014°24'0 0.0
2017-Jun-20 01:30N 67°18' E 014°24'0 0.0
2017-Jun-20 01:01N 67°18' E 014°24'0 0.0
2017-Jun-20 00:31N 67°18' E 014°24'0 0.0
2017-Jun-20 00:01N 67°18' E 014°24'0 0.0
2017-Jun-19 23:31N 67°18' E 014°24'0 0.0
2017-Jun-19 23:00N 67°18' E 014°24'0 0.0
2017-Jun-19 22:31N 67°18' E 014°24'0 0.0
2017-Jun-19 22:01N 67°18' E 014°24'0 0.0
2017-Jun-19 21:31N 67°18' E 014°24'0 0.0
2017-Jun-19 21:01N 67°18' E 014°24'0 0.0
2017-Jun-19 20:31N 67°18' E 014°24'0 0.0
2017-Jun-19 20:01N 67°18' E 014°24'0 0.0
2017-Jun-19 19:31N 67°18' E 014°24'0 0.0
2017-Jun-19 19:01N 67°18' E 014°24'0 0.0
2017-Jun-19 18:30N 67°18' E 014°24'0 0.0
2017-Jun-19 18:01N 67°18' E 014°24'0 0.0
2017-Jun-19 17:31N 67°18' E 014°24'0 0.0
2017-Jun-19 17:01N 67°18' E 014°24'0 0.0
2017-Jun-19 16:30N 67°18' E 014°24'0 0.0
2017-Jun-19 16:01N 67°18' E 014°24'0 0.0
2017-Jun-19 15:31N 67°18' E 014°24'0 0.0
2017-Jun-19 15:01N 67°18' E 014°24'0 0.0
2017-Jun-19 14:31N 67°18' E 014°24'0 0.0
2017-Jun-19 13:31N 67°18' E 014°24'0 0.0
2017-Jun-19 13:01N 67°18' E 014°24'0 0.0
2017-Jun-19 12:30N 67°18' E 014°24'0 0.0
2017-Jun-19 12:00N 67°18' E 014°24'1 1.2
2017-Jun-19 11:30N 67°18' E 014°23'510.3
2017-Jun-19 11:00N 67°22' E 014°29'510.1
2017-Jun-19 10:31N 67°27' E 014°34'5 9.6
2017-Jun-19 10:00N 67°31' E 014°40'5 9.2
2017-Jun-19 09:30N 67°36' E 014°42'510.2
2017-Jun-19 09:00N 67°41' E 014°43'3 6.5
2017-Jun-19 08:30N 67°44' E 014°46'0 0.0
2017-Jun-19 08:00N 67°44' E 014°46'0 0.0
2017-Jun-19 07:30N 67°44' E 014°46'0 0.0
2017-Jun-19 07:00N 67°44' E 014°46'0 0.0
2017-Jun-19 06:30N 67°44' E 014°46'0 0.0
2017-Jun-19 06:00N 67°44' E 014°46'0 0.0
2017-Jun-19 05:30N 67°44' E 014°46'0 0.0
2017-Jun-19 05:00N 67°44' E 014°46'0 0.0
2017-Jun-19 04:30N 67°44' E 014°46'0 0.0
2017-Jun-19 04:00N 67°44' E 014°46'0 0.0
2017-Jun-19 03:31N 67°44' E 014°46'0 0.0
2017-Jun-19 03:01N 67°44' E 014°46'0 0.0
2017-Jun-19 02:30N 67°44' E 014°46'0 0.0
2017-Jun-19 02:00N 67°44' E 014°46'0 0.0
2017-Jun-19 01:30N 67°44' E 014°46'0 0.0
2017-Jun-19 01:00N 67°44' E 014°46'0 0.0
2017-Jun-19 00:30N 67°44' E 014°46'0 0.0
2017-Jun-19 00:00N 67°44' E 014°46'0 0.0
2017-Jun-18 23:30N 67°44' E 014°46'0 0.0
2017-Jun-18 23:00N 67°44' E 014°46'2 3.6
2017-Jun-18 22:30N 67°45' E 014°43'5 9.5
2017-Jun-18 22:01N 67°47' E 014°32'510.2
2017-Jun-18 21:30N 67°51' E 014°41'510.2
2017-Jun-18 21:00N 67°56' E 014°45'510.1
2017-Jun-18 20:30N 68°01' E 014°48'5 9.8
2017-Jun-18 20:00N 68°06' E 014°51'510.1
2017-Jun-18 19:30N 68°11' E 014°54'510.1
2017-Jun-18 19:00N 68°16' E 014°57'510.2
2017-Jun-18 18:30N 68°20' E 015°02'5 9.4
2017-Jun-18 18:00N 68°25' E 015°07'5 9.2
2017-Jun-18 17:30N 68°29' E 015°13'5 9.3
2017-Jun-18 17:00N 68°33' E 015°10'510.3
2017-Jun-18 16:30N 68°38' E 015°19'510.0
2017-Jun-18 16:00N 68°42' E 015°26'510.6
2017-Jun-18 15:30N 68°47' E 015°26'510.1
2017-Jun-18 15:00N 68°52' E 015°23'3 3.0
2017-Jun-18 14:00N 68°54' E 015°17'4 7.2
2017-Jun-18 13:30N 68°52' E 015°24'510.3
2017-Jun-18 13:00N 68°47' E 015°25'510.4
2017-Jun-18 12:30N 68°41' E 015°26'510.2
2017-Jun-18 12:00N 68°37' E 015°18'510.0
2017-Jun-18 11:30N 68°33' E 015°10'5 9.0
2017-Jun-18 11:00N 68°29' E 015°13'4 8.9
2017-Jun-18 10:29N 68°25' E 015°07'4 8.7
2017-Jun-18 10:00N 68°21' E 015°02'5 9.3
2017-Jun-18 09:30N 68°16' E 014°58'5 9.0
2017-Jun-18 09:00N 68°12' E 014°58'5 9.3
2017-Jun-18 08:30N 68°08' E 015°02'4 9.1
2017-Jun-18 08:00N 68°03' E 015°06'5 9.4
2017-Jun-18 07:30N 67°59' E 015°09'1 2.3
2017-Jun-18 07:00N 67°58' E 015°10'0 0.0
2017-Jun-18 06:30N 67°58' E 015°10'0 0.0
2017-Jun-18 06:00N 67°58' E 015°10'3 5.1
2017-Jun-18 05:30N 68°00' E 015°09'4 8.8
2017-Jun-18 05:00N 68°04' E 015°05'5 9.4
2017-Jun-18 04:30N 68°09' E 015°01'4 8.7
2017-Jun-18 04:00N 68°13' E 014°57'4 9.0
2017-Jun-18 03:30N 68°17' E 014°58'510.3
2017-Jun-18 03:00N 68°22' E 015°03'510.2
2017-Jun-18 02:30N 68°26' E 015°10'5 9.1
2017-Jun-18 02:00N 68°31' E 015°09'5 9.8
2017-Jun-18 01:30N 68°36' E 015°14'510.5
2017-Jun-18 01:00N 68°40' E 015°23'2 4.6
2017-Jun-18 00:30N 68°42' E 015°25'0 0.0
2017-Jun-18 00:00N 68°42' E 015°25'0 0.0
2017-Jun-17 23:30N 68°42' E 015°25'0 0.0
2017-Jun-17 23:00N 68°42' E 015°25'0 0.0
2017-Jun-17 22:30N 68°42' E 015°25'0 0.0
2017-Jun-17 22:00N 68°42' E 015°25'0 0.0
2017-Jun-17 21:30N 68°42' E 015°25'0 0.0
2017-Jun-17 21:00N 68°42' E 015°25'0 0.0
2017-Jun-17 20:29N 68°42' E 015°25'0 0.0
2017-Jun-17 19:59N 68°42' E 015°25'0 0.0
2017-Jun-17 19:30N 68°42' E 015°25'0 0.0
2017-Jun-17 19:00N 68°42' E 015°25'0 0.0
2017-Jun-17 18:30N 68°42' E 015°25'0 0.0
2017-Jun-17 18:00N 68°42' E 015°25'0 0.0
2017-Jun-17 17:30N 68°42' E 015°25'0 0.0
2017-Jun-17 17:00N 68°42' E 015°25'0 0.0
2017-Jun-17 16:30N 68°42' E 015°25'1 2.0
2017-Jun-17 16:00N 68°43' E 015°26'510.8
2017-Jun-17 15:30N 68°48' E 015°25'510.2
2017-Jun-17 15:00N 68°53' E 015°21'2 3.4
2017-Jun-17 14:30N 68°54' E 015°17'4 3.7
2017-Jun-17 13:30N 68°52' E 015°25'5 9.4
2017-Jun-17 13:00N 68°47' E 015°26'5 9.7
2017-Jun-17 12:30N 68°42' E 015°26'5 9.2
2017-Jun-17 12:00N 68°38' E 015°20'5 9.3
2017-Jun-17 11:30N 68°34' E 015°11'5 9.1
2017-Jun-17 11:00N 68°30' E 015°11'4 7.9
2017-Jun-17 10:30N 68°26' E 015°09'4 7.9
2017-Jun-17 10:00N 68°23' E 015°04'5 9.2
2017-Jun-17 09:30N 68°18' E 014°58'5 9.5
2017-Jun-17 09:00N 68°14' E 014°57'5 9.4
2017-Jun-17 08:30N 68°09' E 015°00'5 9.8
2017-Jun-17 08:00N 68°05' E 015°05'5 9.6
2017-Jun-17 07:30N 68°00' E 015°09'3 5.4
2017-Jun-17 07:00N 67°58' E 015°10'0 0.0
2017-Jun-17 06:30N 67°58' E 015°10'0 0.0
2017-Jun-17 06:00N 67°58' E 015°10'2 3.8
2017-Jun-17 05:30N 67°57' E 015°15'4 8.3
2017-Jun-17 05:01N 68°01' E 015°20'2 4.6
2017-Jun-17 04:30N 68°02' E 015°15'510.5
2017-Jun-17 04:00N 68°05' E 015°04'510.5
2017-Jun-17 03:30N 68°08' E 014°52'510.3
2017-Jun-17 03:00N 68°11' E 014°41'4 8.6
2017-Jun-17 02:30N 68°14' E 014°32'0 0.0
2017-Jun-17 02:00N 68°14' E 014°32'0 0.0
2017-Jun-17 01:27N 68°14' E 014°32'0 0.0
2017-Jun-17 01:00N 68°14' E 014°32'0 0.0
2017-Jun-17 00:30N 68°14' E 014°32'0 0.0
2017-Jun-17 00:00N 68°14' E 014°32'0 0.0
2017-Jun-16 23:30N 68°14' E 014°32'0 0.0
2017-Jun-16 23:00N 68°14' E 014°32'0 0.0
2017-Jun-16 22:30N 68°14' E 014°32'0 0.0
2017-Jun-16 21:53N 68°14' E 014°32'0 0.0
2017-Jun-16 21:29N 68°14' E 014°32'0 0.0
2017-Jun-16 20:59N 68°14' E 014°32'0 0.0
2017-Jun-16 20:29N 68°14' E 014°32'0 0.0
2017-Jun-16 19:59N 68°14' E 014°32'0 0.0
2017-Jun-16 19:29N 68°14' E 014°32'0 0.0
2017-Jun-16 18:56N 68°14' E 014°32'0 0.0
2017-Jun-16 18:29N 68°14' E 014°32'0 0.0
2017-Jun-16 17:59N 68°14' E 014°32'0 0.0
2017-Jun-16 17:29N 68°14' E 014°32'0 0.0
2017-Jun-16 16:59N 68°14' E 014°32'0 0.0
2017-Jun-16 16:29N 68°14' E 014°32'0 0.0
2017-Jun-16 15:59N 68°14' E 014°32'0 0.0
2017-Jun-16 15:29N 68°14' E 014°32'0 0.0
2017-Jun-16 14:59N 68°14' E 014°32'0 0.0
2017-Jun-16 13:59N 68°14' E 014°32'0 0.0
2017-Jun-16 13:29N 68°14' E 014°32'0 0.0
2017-Jun-16 12:59N 68°14' E 014°32'0 0.0
2017-Jun-16 12:29N 68°14' E 014°32'0 0.0
2017-Jun-16 11:59N 68°14' E 014°32'0 0.0
2017-Jun-16 11:26N 68°14' E 014°32'0 0.0
2017-Jun-16 10:59N 68°14' E 014°32'0 0.0
2017-Jun-16 10:29N 68°14' E 014°32'0 0.0
2017-Jun-16 09:59N 68°14' E 014°32'0 0.0
2017-Jun-16 09:26N 68°14' E 014°32'0 0.0
2017-Jun-16 08:53N 68°14' E 014°32'0 0.0
2017-Jun-16 08:29N 68°14' E 014°32'0 0.0
2017-Jun-16 07:59N 68°14' E 014°32'0 0.0
2017-Jun-16 07:30N 68°14' E 014°32'0 0.0
2017-Jun-16 06:59N 68°14' E 014°32'0 0.0
2017-Jun-16 06:30N 68°14' E 014°32'0 0.1
2017-Jun-16 06:00N 68°14' E 014°32'0 0.0
2017-Jun-16 05:30N 68°14' E 014°32'0 0.1
2017-Jun-16 05:00N 68°14' E 014°32'0 0.0
2017-Jun-16 04:30N 68°14' E 014°32'0 0.0
2017-Jun-16 04:00N 68°14' E 014°32'0 0.1
2017-Jun-16 03:29N 68°14' E 014°32'0 0.0
2017-Jun-16 03:01N 68°14' E 014°32'0 0.1
2017-Jun-16 02:30N 68°14' E 014°32'0 0.0
2017-Jun-16 02:00N 68°14' E 014°32'0 0.0
2017-Jun-16 01:30N 68°14' E 014°32'0 0.2
2017-Jun-16 01:00N 68°14' E 014°32'0 0.2
2017-Jun-16 00:30N 68°14' E 014°32'0 0.2
2017-Jun-16 00:00N 68°14' E 014°32'0 0.2
2017-Jun-15 23:30N 68°14' E 014°32'0 0.1
2017-Jun-15 23:00N 68°14' E 014°32'0 0.1
2017-Jun-15 22:30N 68°14' E 014°32'0 0.1
2017-Jun-15 22:00N 68°14' E 014°32'0 0.0
2017-Jun-15 21:30N 68°14' E 014°32'0 0.1
2017-Jun-15 21:00N 68°14' E 014°32'0 0.1
2017-Jun-15 20:30N 68°14' E 014°32'0 0.2
2017-Jun-15 20:00N 68°14' E 014°32'0 0.1
2017-Jun-15 19:30N 68°14' E 014°32'0 0.1
2017-Jun-15 19:00N 68°14' E 014°32'0 0.1
2017-Jun-15 18:30N 68°14' E 014°32'  
Track history (hours):
 
Tides and Currents Weather Stations Pressure Air Temp Water Temp Dewpoint Dewpoint Depression Visibility Wind Speed Wind Dir Waves Ship Positions

Veidnes

Last reported at 2017-Jun-25 18:30 UTC. Time now 2017-Jun-25 18:57 UTC.
Position N 68°33' E 015°10'.

Length 51 m; draft 5 m.

Type: Cargo ship. MMSI: 259237000.

Date/timePositionNaut miles runAvg speedWind from/ knotsBaromVisibWave heightAir tempDewpointWater temp
2017-Jun-25 18:30N 68°33' E 015°10'4 8.4
2017-Jun-25 18:00N 68°28' E 015°12'4 8.4
2017-Jun-25 17:30N 68°25' E 015°07'3 5.3
2017-Jun-25 17:00N 68°22' E 015°04'4 8.9
2017-Jun-25 16:30N 68°19' E 014°58'5 9.0
2017-Jun-25 16:00N 68°14' E 014°57'5 9.2
2017-Jun-25 15:30N 68°10' E 014°53'5 9.2
2017-Jun-25 15:00N 68°05' E 014°51'5 9.0
2017-Jun-25 14:30N 68°01' E 014°49'9 9.3
2017-Jun-25 13:30N 67°52' E 014°42'5 9.2
2017-Jun-25 13:00N 67°48' E 014°34'4 8.5
2017-Jun-25 12:30N 67°44' E 014°31'4 7.8
2017-Jun-25 12:00N 67°42' E 014°39'4 7.3
2017-Jun-25 11:30N 67°39' E 014°46'5 9.6
2017-Jun-25 11:00N 67°40' E 014°58'5 9.6
2017-Jun-25 10:29N 67°42' E 015°09'5 9.3
2017-Jun-25 10:00N 67°45' E 015°19'3 6.0
2017-Jun-25 09:30N 67°44' E 015°27'0 0.0
2017-Jun-25 09:00N 67°44' E 015°27'0 0.0
2017-Jun-25 08:30N 67°44' E 015°27'2 4.1
2017-Jun-25 07:59N 67°44' E 015°22'5 9.8
2017-Jun-25 07:30N 67°42' E 015°11'510.5
2017-Jun-25 07:00N 67°40' E 014°59'510.0
2017-Jun-25 06:30N 67°39' E 014°45'4 8.8
2017-Jun-25 06:00N 67°42' E 014°36'4 8.9
2017-Jun-25 05:30N 67°46' E 014°31'510.3
2017-Jun-25 05:00N 67°50' E 014°39'510.2
2017-Jun-25 04:29N 67°55' E 014°45'510.6
2017-Jun-25 03:59N 68°00' E 014°48'510.7
2017-Jun-25 03:30N 68°05' E 014°51'610.8
2017-Jun-25 03:00N 68°11' E 014°54'510.9
2017-Jun-25 02:30N 68°16' E 014°58'510.2
2017-Jun-25 02:00N 68°21' E 015°02'5 9.2
2017-Jun-25 01:30N 68°25' E 015°08'4 7.5
2017-Jun-25 01:00N 68°28' E 015°12'4 7.2
2017-Jun-25 00:30N 68°32' E 015°10'5 9.9
2017-Jun-24 23:59N 68°36' E 015°16'510.2
2017-Jun-24 23:30N 68°40' E 015°24'5 9.5
2017-Jun-24 23:00N 68°45' E 015°25'510.1
2017-Jun-24 22:30N 68°50' E 015°25'5 9.5
2017-Jun-24 22:00N 68°54' E 015°19'1 1.1
2017-Jun-24 21:30N 68°54' E 015°17'1 2.1
2017-Jun-24 21:00N 68°54' E 015°20'4 8.2
2017-Jun-24 20:30N 68°51' E 015°25'4 9.1
2017-Jun-24 20:00N 68°46' E 015°26'4 8.8
2017-Jun-24 19:31N 68°42' E 015°26'4 8.6
2017-Jun-24 19:00N 68°38' E 015°20'4 9.2
2017-Jun-24 18:31N 68°35' E 015°12'5 9.0
2017-Jun-24 18:00N 68°30' E 015°11'4 7.8
2017-Jun-24 17:30N 68°26' E 015°09'4 7.7
2017-Jun-24 17:00N 68°23' E 015°04'5 9.2
2017-Jun-24 16:30N 68°19' E 014°58'5 9.3
2017-Jun-24 16:00N 68°14' E 014°56'5 9.4
2017-Jun-24 15:31N 68°10' E 014°54'5 9.3
2017-Jun-24 15:00N 68°05' E 014°51'9 9.6
2017-Jun-24 14:00N 67°56' E 014°45'5 9.7
2017-Jun-24 13:30N 67°51' E 014°41'5 9.6
2017-Jun-24 13:00N 67°48' E 014°32'5 9.5
2017-Jun-24 12:29N 67°43' E 014°32'5 9.5
2017-Jun-24 12:00N 67°41' E 014°43'4 7.9
2017-Jun-24 11:30N 67°39' E 014°52'5 9.4
2017-Jun-24 11:00N 67°41' E 015°04'5 9.4
2017-Jun-24 10:30N 67°44' E 015°14'4 8.2
2017-Jun-24 10:00N 67°44' E 015°25'1 1.9
2017-Jun-24 09:31N 67°44' E 015°27'0 0.0
2017-Jun-24 09:00N 67°44' E 015°27'0 0.1
2017-Jun-24 08:31N 67°44' E 015°27'4 7.1
2017-Jun-24 08:00N 67°45' E 015°18'510.7
2017-Jun-24 07:30N 67°41' E 015°06'510.7
2017-Jun-24 07:00N 67°39' E 014°54'4 8.9
2017-Jun-24 06:30N 67°40' E 014°42'4 8.6
2017-Jun-24 06:00N 67°44' E 014°46'0 0.1
2017-Jun-24 05:30N 67°44' E 014°46'0 0.0
2017-Jun-24 05:00N 67°44' E 014°46'0 0.0
2017-Jun-24 04:30N 67°44' E 014°46'0 0.0
2017-Jun-24 04:00N 67°44' E 014°46'0 0.0
2017-Jun-24 03:30N 67°44' E 014°46'0 0.0
2017-Jun-24 03:00N 67°44' E 014°46'0 0.0
2017-Jun-24 02:30N 67°44' E 014°46'0 0.0
2017-Jun-24 02:00N 67°44' E 014°46'0 0.0
2017-Jun-24 01:30N 67°44' E 014°46'0 0.0
2017-Jun-24 01:00N 67°44' E 014°46'0 0.0
2017-Jun-24 00:30N 67°44' E 014°46'0 0.0
2017-Jun-24 00:00N 67°44' E 014°46'0 0.0
2017-Jun-23 23:30N 67°44' E 014°46'0 0.0
2017-Jun-23 23:00N 67°44' E 014°46'0 0.0
2017-Jun-23 22:30N 67°44' E 014°46'0 0.0
2017-Jun-23 22:00N 67°44' E 014°46'0 0.0
2017-Jun-23 21:30N 67°44' E 014°46'0 0.0
2017-Jun-23 21:00N 67°44' E 014°46'0 0.0
2017-Jun-23 20:30N 67°44' E 014°46'0 0.0
2017-Jun-23 20:00N 67°44' E 014°46'0 0.0
2017-Jun-23 19:30N 67°44' E 014°46'0 0.0
2017-Jun-23 19:00N 67°44' E 014°46'0 0.0
2017-Jun-23 18:30N 67°44' E 014°46'0 1.0
2017-Jun-23 18:00N 67°44' E 014°46'510.0
2017-Jun-23 17:30N 67°46' E 014°34'5 9.9
2017-Jun-23 17:00N 67°51' E 014°31'511.0
2017-Jun-23 16:30N 67°56' E 014°36'510.2
2017-Jun-23 16:00N 68°01' E 014°41'5 9.4
2017-Jun-23 15:31N 68°05' E 014°45'5 9.6
2017-Jun-23 15:00N 68°10' E 014°51'9 9.3
2017-Jun-23 14:00N 68°19' E 014°58'4 8.8
2017-Jun-23 13:30N 68°22' E 015°04'4 8.4
2017-Jun-23 13:00N 68°26' E 015°09'4 7.5
2017-Jun-23 12:30N 68°30' E 015°11'4 8.9
2017-Jun-23 12:00N 68°34' E 015°11'5 9.5
2017-Jun-23 11:30N 68°38' E 015°19'4 8.9
2017-Jun-23 11:00N 68°42' E 015°26'0 0.3
2017-Jun-23 10:29N 68°42' E 015°25'0 0.0
2017-Jun-23 09:59N 68°42' E 015°25'0 0.0
2017-Jun-23 09:29N 68°42' E 015°25'0 0.0
2017-Jun-23 08:59N 68°42' E 015°25'0 0.0
2017-Jun-23 08:29N 68°42' E 015°25'0 0.0
2017-Jun-23 07:59N 68°42' E 015°25'0 0.0
2017-Jun-23 07:29N 68°42' E 015°25'0 0.0
2017-Jun-23 06:59N 68°42' E 015°25'0 0.0
2017-Jun-23 06:29N 68°42' E 015°25'0 0.0
2017-Jun-23 05:59N 68°42' E 015°25'0 0.0
2017-Jun-23 05:29N 68°42' E 015°25'0 0.0
2017-Jun-23 04:59N 68°42' E 015°25'0 0.0
2017-Jun-23 04:29N 68°42' E 015°25'0 1.0
2017-Jun-23 04:00N 68°42' E 015°26'510.8
2017-Jun-23 03:30N 68°48' E 015°26'511.0
2017-Jun-23 03:00N 68°53' E 015°31'611.1
2017-Jun-23 02:29N 68°58' E 015°38'510.6
2017-Jun-23 02:00N 68°59' E 015°51'510.6
2017-Jun-23 01:30N 69°03' E 016°02'510.3
2017-Jun-23 00:59N 69°07' E 016°11'510.6
2017-Jun-23 00:30N 69°12' E 016°19'510.9
2017-Jun-23 00:00N 69°16' E 016°28'610.9
2017-Jun-22 23:29N 69°21' E 016°36'511.0
2017-Jun-22 23:00N 69°25' E 016°44'610.9
2017-Jun-22 22:30N 69°30' E 016°53'611.3
2017-Jun-22 22:00N 69°33' E 017°07'511.1
2017-Jun-22 21:30N 69°36' E 017°20'510.7
2017-Jun-22 21:00N 69°39' E 017°33'510.3
2017-Jun-22 20:30N 69°38' E 017°48'510.6
2017-Jun-22 20:00N 69°34' E 017°59'511.1
2017-Jun-22 19:30N 69°31' E 018°12'510.7
2017-Jun-22 19:00N 69°32' E 018°27'510.5
2017-Jun-22 18:30N 69°33' E 018°41'4 8.7
2017-Jun-22 18:00N 69°36' E 018°52'510.2
2017-Jun-22 17:30N 69°40' E 018°60'510.4
2017-Jun-22 17:00N 69°45' E 019°06'510.8
2017-Jun-22 16:30N 69°47' E 019°19'611.2
2017-Jun-22 16:00N 69°50' E 019°34'510.9
2017-Jun-22 15:30N 69°52' E 019°48'510.9
2017-Jun-22 15:00N 69°55' E 020°01'611.0
2017-Jun-22 14:30N 69°59' E 020°14'1110.9
2017-Jun-22 13:30N 70°02' E 020°44'510.7
2017-Jun-22 13:00N 70°05' E 020°56'510.7
2017-Jun-22 12:30N 70°10' E 021°04'510.6
2017-Jun-22 12:00N 70°15' E 021°12'510.8
2017-Jun-22 11:30N 70°18' E 021°25'510.7
2017-Jun-22 11:00N 70°22' E 021°35'4 8.8
2017-Jun-22 10:30N 70°24' E 021°47'510.6
2017-Jun-22 10:00N 70°21' E 022°01'510.7
2017-Jun-22 09:30N 70°19' E 022°15'510.8
2017-Jun-22 09:00N 70°16' E 022°29'510.3
2017-Jun-22 08:30N 70°14' E 022°44'510.2
2017-Jun-22 08:00N 70°14' E 022°59'510.6
2017-Jun-22 07:29N 70°16' E 023°13'510.9
2017-Jun-22 07:00N 70°20' E 023°25'3 6.7
2017-Jun-22 06:29N 70°23' E 023°29'0 0.0
2017-Jun-22 05:59N 70°23' E 023°29'0 0.0
2017-Jun-22 05:29N 70°23' E 023°29'0 0.4
2017-Jun-22 04:59N 70°23' E 023°29'0 0.0
2017-Jun-22 04:29N 70°23' E 023°29'0 0.0
2017-Jun-22 03:59N 70°23' E 023°29'0 0.0
2017-Jun-22 03:29N 70°23' E 023°29'0 0.0
2017-Jun-22 02:59N 70°23' E 023°29'0 0.0
2017-Jun-22 02:26N 70°23' E 023°29'0 0.0
2017-Jun-22 01:59N 70°23' E 023°29'0 0.0
2017-Jun-22 01:30N 70°23' E 023°29'2 4.1
2017-Jun-22 01:00N 70°21' E 023°28'4 9.0
2017-Jun-22 00:30N 70°18' E 023°20'5 9.0
2017-Jun-22 00:00N 70°15' E 023°09'4 9.0
2017-Jun-21 23:30N 70°14' E 022°56'5 9.7
2017-Jun-21 23:00N 70°15' E 022°42'5 9.6
2017-Jun-21 22:30N 70°16' E 022°29'5 9.5
2017-Jun-21 22:00N 70°18' E 022°16'5 9.6
2017-Jun-21 21:30N 70°21' E 022°04'5 9.8
2017-Jun-21 21:00N 70°23' E 021°51'5 9.2
2017-Jun-21 20:30N 70°25' E 021°38'4 8.9
2017-Jun-21 20:00N 70°24' E 021°25'5 8.9
2017-Jun-21 19:30N 70°22' E 021°13'4 8.8
2017-Jun-21 19:00N 70°20' E 021°02'4 8.7
2017-Jun-21 18:30N 70°18' E 020°50'4 8.7
2017-Jun-21 18:00N 70°16' E 020°40'4 8.5
2017-Jun-21 17:30N 70°13' E 020°29'4 8.7
2017-Jun-21 17:00N 70°10' E 020°20'5 9.0
2017-Jun-21 16:30N 70°07' E 020°12'4 8.9
2017-Jun-21 16:00N 70°04' E 020°02'4 8.7
2017-Jun-21 15:30N 70°02' E 019°50'5 9.3
2017-Jun-21 15:00N 70°04' E 019°37'9 9.2
2017-Jun-21 14:00N 70°06' E 019°11'4 8.6
2017-Jun-21 13:30N 70°04' E 018°60'4 7.4
2017-Jun-21 12:58N 70°02' E 018°50'3 7.7
2017-Jun-21 12:30N 69°59' E 018°43'4 8.9
2017-Jun-21 12:00N 69°57' E 018°32'5 9.1
2017-Jun-21 11:29N 69°55' E 018°19'5 9.5
2017-Jun-21 11:00N 69°52' E 018°11'4 8.6
2017-Jun-21 10:30N 69°49' E 018°02'5 8.9
2017-Jun-21 09:59N 69°46' E 017°51'4 9.2
2017-Jun-21 09:30N 69°43' E 017°41'5 9.2
2017-Jun-21 09:00N 69°40' E 017°31'103 8.4
2017-Jun-20 20:46N 68°08' E 015°21'42 9.1
2017-Jun-20 16:10N 67°30' E 014°32'210.0
2017-Jun-20 16:01N 67°29' E 014°32'510.1
2017-Jun-20 15:31N 67°24' E 014°31'510.0
2017-Jun-20 15:01N 67°20' E 014°22'5 4.8
2017-Jun-20 14:01N 67°15' E 014°23'510.1
2017-Jun-20 13:31N 67°16' E 014°36'4 5.6
2017-Jun-20 12:49N 67°19' E 014°44'0 0.0
2017-Jun-20 12:26N 67°19' E 014°44'0 0.0
2017-Jun-20 10:43N 67°19' E 014°44'0 0.0
2017-Jun-20 09:01N 67°19' E 014°44'0 0.0
2017-Jun-20 09:00N 67°19' E 014°44'0 0.0
2017-Jun-20 08:30N 67°19' E 014°44'0 0.0
2017-Jun-20 08:00N 67°19' E 014°44'0 0.0
2017-Jun-20 07:30N 67°19' E 014°44'0 0.0
2017-Jun-20 07:00N 67°19' E 014°44'0 0.0
2017-Jun-20 06:30N 67°19' E 014°44'0 0.0
2017-Jun-20 05:59N 67°19' E 014°44'3 5.7
2017-Jun-20 05:31N 67°17' E 014°39'4 8.4
2017-Jun-20 05:01N 67°16' E 014°29'4 8.3
2017-Jun-20 04:30N 67°15' E 014°18'3 6.2
2017-Jun-20 04:00N 67°17' E 014°23'0 0.7
2017-Jun-20 03:31N 67°18' E 014°24'0 0.0
2017-Jun-20 03:01N 67°18' E 014°24'0 0.0
2017-Jun-20 02:31N 67°18' E 014°24'0 0.0
2017-Jun-20 02:01N 67°18' E 014°24'0 0.0
2017-Jun-20 01:30N 67°18' E 014°24'0 0.0
2017-Jun-20 01:01N 67°18' E 014°24'0 0.0
2017-Jun-20 00:31N 67°18' E 014°24'0 0.0
2017-Jun-20 00:01N 67°18' E 014°24'0 0.0
2017-Jun-19 23:31N 67°18' E 014°24'0 0.0
2017-Jun-19 23:00N 67°18' E 014°24'0 0.0
2017-Jun-19 22:31N 67°18' E 014°24'0 0.0
2017-Jun-19 22:01N 67°18' E 014°24'0 0.0
2017-Jun-19 21:31N 67°18' E 014°24'0 0.0
2017-Jun-19 21:01N 67°18' E 014°24'0 0.0
2017-Jun-19 20:31N 67°18' E 014°24'0 0.0
2017-Jun-19 20:01N 67°18' E 014°24'0 0.0
2017-Jun-19 19:31N 67°18' E 014°24'0 0.0
2017-Jun-19 19:01N 67°18' E 014°24'0 0.0
2017-Jun-19 18:30N 67°18' E 014°24'0 0.0
2017-Jun-19 18:01N 67°18' E 014°24'0 0.0
2017-Jun-19 17:31N 67°18' E 014°24'0 0.0
2017-Jun-19 17:01N 67°18' E 014°24'0 0.0
2017-Jun-19 16:30N 67°18' E 014°24'0 0.0
2017-Jun-19 16:01N 67°18' E 014°24'0 0.0
2017-Jun-19 15:31N 67°18' E 014°24'0 0.0
2017-Jun-19 15:01N 67°18' E 014°24'0 0.0
2017-Jun-19 14:31N 67°18' E 014°24'0 0.0
2017-Jun-19 13:31N 67°18' E 014°24'0 0.0
2017-Jun-19 13:01N 67°18' E 014°24'0 0.0
2017-Jun-19 12:30N 67°18' E 014°24'0 0.0
2017-Jun-19 12:00N 67°18' E 014°24'1 1.2
2017-Jun-19 11:30N 67°18' E 014°23'510.3
2017-Jun-19 11:00N 67°22' E 014°29'510.1
2017-Jun-19 10:31N 67°27' E 014°34'5 9.6
2017-Jun-19 10:00N 67°31' E 014°40'5 9.2
2017-Jun-19 09:30N 67°36' E 014°42'510.2
2017-Jun-19 09:00N 67°41' E 014°43'3 6.5
2017-Jun-19 08:30N 67°44' E 014°46'0 0.0
2017-Jun-19 08:00N 67°44' E 014°46'0 0.0
2017-Jun-19 07:30N 67°44' E 014°46'0 0.0
2017-Jun-19 07:00N 67°44' E 014°46'0 0.0
2017-Jun-19 06:30N 67°44' E 014°46'0 0.0
2017-Jun-19 06:00N 67°44' E 014°46'0 0.0
2017-Jun-19 05:30N 67°44' E 014°46'0 0.0
2017-Jun-19 05:00N 67°44' E 014°46'0 0.0
2017-Jun-19 04:30N 67°44' E 014°46'0 0.0
2017-Jun-19 04:00N 67°44' E 014°46'0 0.0
2017-Jun-19 03:31N 67°44' E 014°46'0 0.0
2017-Jun-19 03:01N 67°44' E 014°46'0 0.0
2017-Jun-19 02:30N 67°44' E 014°46'0 0.0
2017-Jun-19 02:00N 67°44' E 014°46'0 0.0
2017-Jun-19 01:30N 67°44' E 014°46'0 0.0
2017-Jun-19 01:00N 67°44' E 014°46'0 0.0
2017-Jun-19 00:30N 67°44' E 014°46'0 0.0
2017-Jun-19 00:00N 67°44' E 014°46'0 0.0
2017-Jun-18 23:30N 67°44' E 014°46'0 0.0
2017-Jun-18 23:00N 67°44' E 014°46'2 3.6
2017-Jun-18 22:30N 67°45' E 014°43'5 9.5
2017-Jun-18 22:01N 67°47' E 014°32'510.2
2017-Jun-18 21:30N 67°51' E 014°41'510.2
2017-Jun-18 21:00N 67°56' E 014°45'510.1
2017-Jun-18 20:30N 68°01' E 014°48'5 9.8
2017-Jun-18 20:00N 68°06' E 014°51'510.1
2017-Jun-18 19:30N 68°11' E 014°54'510.1
2017-Jun-18 19:00N 68°16' E 014°57'510.2
2017-Jun-18 18:30N 68°20' E 015°02'5 9.4
2017-Jun-18 18:00N 68°25' E 015°07'5 9.2
2017-Jun-18 17:30N 68°29' E 015°13'5 9.3
2017-Jun-18 17:00N 68°33' E 015°10'510.3
2017-Jun-18 16:30N 68°38' E 015°19'510.0
2017-Jun-18 16:00N 68°42' E 015°26'510.6
2017-Jun-18 15:30N 68°47' E 015°26'510.1
2017-Jun-18 15:00N 68°52' E 015°23'3 3.0
2017-Jun-18 14:00N 68°54' E 015°17'4 7.2
2017-Jun-18 13:30N 68°52' E 015°24'510.3
2017-Jun-18 13:00N 68°47' E 015°25'510.4
2017-Jun-18 12:30N 68°41' E 015°26'510.2
2017-Jun-18 12:00N 68°37' E 015°18'510.0
2017-Jun-18 11:30N 68°33' E 015°10'5 9.0
2017-Jun-18 11:00N 68°29' E 015°13'4 8.9
2017-Jun-18 10:29N 68°25' E 015°07'4 8.7
2017-Jun-18 10:00N 68°21' E 015°02'5 9.3
2017-Jun-18 09:30N 68°16' E 014°58'5 9.0
2017-Jun-18 09:00N 68°12' E 014°58'5 9.3
2017-Jun-18 08:30N 68°08' E 015°02'4 9.1
2017-Jun-18 08:00N 68°03' E 015°06'5 9.4
2017-Jun-18 07:30N 67°59' E 015°09'1 2.3
2017-Jun-18 07:00N 67°58' E 015°10'0 0.0
2017-Jun-18 06:30N 67°58' E 015°10'0 0.0
2017-Jun-18 06:00N 67°58' E 015°10'3 5.1
2017-Jun-18 05:30N 68°00' E 015°09'4 8.8
2017-Jun-18 05:00N 68°04' E 015°05'5 9.4
2017-Jun-18 04:30N 68°09' E 015°01'4 8.7
2017-Jun-18 04:00N 68°13' E 014°57'4 9.0
2017-Jun-18 03:30N 68°17' E 014°58'510.3
2017-Jun-18 03:00N 68°22' E 015°03'510.2
2017-Jun-18 02:30N 68°26' E 015°10'5 9.1
2017-Jun-18 02:00N 68°31' E 015°09'5 9.8
2017-Jun-18 01:30N 68°36' E 015°14'510.5
2017-Jun-18 01:00N 68°40' E 015°23'2 4.6
2017-Jun-18 00:30N 68°42' E 015°25'0 0.0
2017-Jun-18 00:00N 68°42' E 015°25'0 0.0
2017-Jun-17 23:30N 68°42' E 015°25'0 0.0
2017-Jun-17 23:00N 68°42' E 015°25'0 0.0
2017-Jun-17 22:30N 68°42' E 015°25'0 0.0
2017-Jun-17 22:00N 68°42' E 015°25'0 0.0
2017-Jun-17 21:30N 68°42' E 015°25'0 0.0
2017-Jun-17 21:00N 68°42' E 015°25'0 0.0
2017-Jun-17 20:29N 68°42' E 015°25'0 0.0
2017-Jun-17 19:59N 68°42' E 015°25'0 0.0
2017-Jun-17 19:30N 68°42' E 015°25'0 0.0
2017-Jun-17 19:00N 68°42' E 015°25'0 0.0
2017-Jun-17 18:30N 68°42' E 015°25'0 0.0
2017-Jun-17 18:00N 68°42' E 015°25'0 0.0
2017-Jun-17 17:30N 68°42' E 015°25'0 0.0
2017-Jun-17 17:00N 68°42' E 015°25'0 0.0
2017-Jun-17 16:30N 68°42' E 015°25'1 2.0
2017-Jun-17 16:00N 68°43' E 015°26'510.8
2017-Jun-17 15:30N 68°48' E 015°25'510.2
2017-Jun-17 15:00N 68°53' E 015°21'2 3.4
2017-Jun-17 14:30N 68°54' E 015°17'4 3.7
2017-Jun-17 13:30N 68°52' E 015°25'5 9.4
2017-Jun-17 13:00N 68°47' E 015°26'5 9.7
2017-Jun-17 12:30N 68°42' E 015°26'5 9.2
2017-Jun-17 12:00N 68°38' E 015°20'5 9.3
2017-Jun-17 11:30N 68°34' E 015°11'5 9.1
2017-Jun-17 11:00N 68°30' E 015°11'4 7.9
2017-Jun-17 10:30N 68°26' E 015°09'4 7.9
2017-Jun-17 10:00N 68°23' E 015°04'5 9.2
2017-Jun-17 09:30N 68°18' E 014°58'5 9.5
2017-Jun-17 09:00N 68°14' E 014°57'5 9.4
2017-Jun-17 08:30N 68°09' E 015°00'5 9.8
2017-Jun-17 08:00N 68°05' E 015°05'5 9.6
2017-Jun-17 07:30N 68°00' E 015°09'3 5.4
2017-Jun-17 07:00N 67°58' E 015°10'0 0.0
2017-Jun-17 06:30N 67°58' E 015°10'0 0.0
2017-Jun-17 06:00N 67°58' E 015°10'2 3.8
2017-Jun-17 05:30N 67°57' E 015°15'4 8.3
2017-Jun-17 05:01N 68°01' E 015°20'2 4.6
2017-Jun-17 04:30N 68°02' E 015°15'510.5
2017-Jun-17 04:00N 68°05' E 015°04'510.5
2017-Jun-17 03:30N 68°08' E 014°52'510.3
2017-Jun-17 03:00N 68°11' E 014°41'4 8.6
2017-Jun-17 02:30N 68°14' E 014°32'0 0.0
2017-Jun-17 02:00N 68°14' E 014°32'0 0.0
2017-Jun-17 01:27N 68°14' E 014°32'0 0.0
2017-Jun-17 01:00N 68°14' E 014°32'0 0.0
2017-Jun-17 00:30N 68°14' E 014°32'0 0.0
2017-Jun-17 00:00N 68°14' E 014°32'0 0.0
2017-Jun-16 23:30N 68°14' E 014°32'0 0.0
2017-Jun-16 23:00N 68°14' E 014°32'0 0.0
2017-Jun-16 22:30N 68°14' E 014°32'0 0.0
2017-Jun-16 21:53N 68°14' E 014°32'0 0.0
2017-Jun-16 21:29N 68°14' E 014°32'0 0.0
2017-Jun-16 20:59N 68°14' E 014°32'0 0.0
2017-Jun-16 20:29N 68°14' E 014°32'0 0.0
2017-Jun-16 19:59N 68°14' E 014°32'0 0.0
2017-Jun-16 19:29N 68°14' E 014°32'0 0.0
2017-Jun-16 18:56N 68°14' E 014°32'0 0.0
2017-Jun-16 18:29N 68°14' E 014°32'0 0.0
2017-Jun-16 17:59N 68°14' E 014°32'0 0.0
2017-Jun-16 17:29N 68°14' E 014°32'0 0.0
2017-Jun-16 16:59N 68°14' E 014°32'0 0.0
2017-Jun-16 16:29N 68°14' E 014°32'0 0.0
2017-Jun-16 15:59N 68°14' E 014°32'0 0.0
2017-Jun-16 15:29N 68°14' E 014°32'0 0.0
2017-Jun-16 14:59N 68°14' E 014°32'0 0.0
2017-Jun-16 13:59N 68°14' E 014°32'0 0.0
2017-Jun-16 13:29N 68°14' E 014°32'0 0.0
2017-Jun-16 12:59N 68°14' E 014°32'0 0.0
2017-Jun-16 12:29N 68°14' E 014°32'0 0.0
2017-Jun-16 11:59N 68°14' E 014°32'0 0.0
2017-Jun-16 11:26N 68°14' E 014°32'0 0.0
2017-Jun-16 10:59N 68°14' E 014°32'0 0.0
2017-Jun-16 10:29N 68°14' E 014°32'0 0.0
2017-Jun-16 09:59N 68°14' E 014°32'0 0.0
2017-Jun-16 09:26N 68°14' E 014°32'0 0.0
2017-Jun-16 08:53N 68°14' E 014°32'0 0.0
2017-Jun-16 08:29N 68°14' E 014°32'0 0.0
2017-Jun-16 07:59N 68°14' E 014°32'0 0.0
2017-Jun-16 07:30N 68°14' E 014°32'0 0.0
2017-Jun-16 06:59N 68°14' E 014°32'0 0.0
2017-Jun-16 06:30N 68°14' E 014°32'0 0.1
2017-Jun-16 06:00N 68°14' E 014°32'0 0.0
2017-Jun-16 05:30N 68°14' E 014°32'0 0.1
2017-Jun-16 05:00N 68°14' E 014°32'0 0.0
2017-Jun-16 04:30N 68°14' E 014°32'0 0.0
2017-Jun-16 04:00N 68°14' E 014°32'0 0.1
2017-Jun-16 03:29N 68°14' E 014°32'0 0.0
2017-Jun-16 03:01N 68°14' E 014°32'0 0.1
2017-Jun-16 02:30N 68°14' E 014°32'0 0.0
2017-Jun-16 02:00N 68°14' E 014°32'0 0.0
2017-Jun-16 01:30N 68°14' E 014°32'0 0.2
2017-Jun-16 01:00N 68°14' E 014°32'0 0.2
2017-Jun-16 00:30N 68°14' E 014°32'0 0.2
2017-Jun-16 00:00N 68°14' E 014°32'0 0.2
2017-Jun-15 23:30N 68°14' E 014°32'0 0.1
2017-Jun-15 23:00N 68°14' E 014°32'0 0.1
2017-Jun-15 22:30N 68°14' E 014°32'0 0.1
2017-Jun-15 22:00N 68°14' E 014°32'0 0.0
2017-Jun-15 21:30N 68°14' E 014°32'0 0.1
2017-Jun-15 21:00N 68°14' E 014°32'0 0.1
2017-Jun-15 20:30N 68°14' E 014°32'0 0.2
2017-Jun-15 20:00N 68°14' E 014°32'0 0.1
2017-Jun-15 19:30N 68°14' E 014°32'0 0.1
2017-Jun-15 19:00N 68°14' E 014°32'0 0.1
2017-Jun-15 18:30N 68°14' E 014°32'  

Dump ship's entire track history